sensor_id;sensor_type;location;lat;lon;timestamp;P1;durP1;ratioP1;P2;durP2;ratioP2
4434;SDS011;46552;52.150;8.428;2024-02-21T00:00:22;49.60;;;24.90;;
4434;SDS011;46552;52.150;8.428;2024-02-21T00:02:50;51.20;;;25.10;;
4434;SDS011;46552;52.150;8.428;2024-02-21T00:05:18;54.73;;;25.10;;
4434;SDS011;46552;52.150;8.428;2024-02-21T00:07:45;54.17;;;24.87;;
4434;SDS011;46552;52.150;8.428;2024-02-21T00:10:12;44.20;;;21.80;;
4434;SDS011;46552;52.150;8.428;2024-02-21T00:12:40;42.20;;;23.30;;
4434;SDS011;46552;52.150;8.428;2024-02-21T00:15:09;63.73;;;26.40;;
4434;SDS011;46552;52.150;8.428;2024-02-21T00:17:36;58.93;;;24.90;;
4434;SDS011;46552;52.150;8.428;2024-02-21T00:20:05;53.37;;;23.17;;
4434;SDS011;46552;52.150;8.428;2024-02-21T00:22:34;49.03;;;25.00;;
4434;SDS011;46552;52.150;8.428;2024-02-21T00:25:03;43.80;;;22.77;;
4434;SDS011;46552;52.150;8.428;2024-02-21T00:27:31;49.07;;;24.50;;
4434;SDS011;46552;52.150;8.428;2024-02-21T00:29:58;44.90;;;25.33;;
4434;SDS011;46552;52.150;8.428;2024-02-21T00:32:26;52.20;;;23.60;;
4434;SDS011;46552;52.150;8.428;2024-02-21T00:34:53;62.47;;;23.70;;
4434;SDS011;46552;52.150;8.428;2024-02-21T00:37:20;50.37;;;23.83;;
4434;SDS011;46552;52.150;8.428;2024-02-21T00:39:49;48.70;;;23.33;;
4434;SDS011;46552;52.150;8.428;2024-02-21T00:42:17;56.40;;;25.97;;
4434;SDS011;46552;52.150;8.428;2024-02-21T00:44:44;52.97;;;25.20;;
4434;SDS011;46552;52.150;8.428;2024-02-21T00:47:12;46.47;;;23.20;;
4434;SDS011;46552;52.150;8.428;2024-02-21T00:49:41;43.87;;;23.33;;
4434;SDS011;46552;52.150;8.428;2024-02-21T00:52:08;43.90;;;21.37;;
4434;SDS011;46552;52.150;8.428;2024-02-21T00:54:35;54.40;;;24.83;;
4434;SDS011;46552;52.150;8.428;2024-02-21T00:57:02;46.47;;;22.90;;
4434;SDS011;46552;52.150;8.428;2024-02-21T00:59:31;43.93;;;23.33;;
4434;SDS011;46552;52.150;8.428;2024-02-21T01:01:59;51.90;;;22.40;;
4434;SDS011;46552;52.150;8.428;2024-02-21T01:04:26;48.87;;;24.80;;
4434;SDS011;46552;52.150;8.428;2024-02-21T01:06:54;50.77;;;24.40;;
4434;SDS011;46552;52.150;8.428;2024-02-21T01:09:22;52.20;;;24.10;;
4434;SDS011;46552;52.150;8.428;2024-02-21T01:11:49;46.67;;;21.43;;
4434;SDS011;46552;52.150;8.428;2024-02-21T01:14:17;51.33;;;24.53;;
4434;SDS011;46552;52.150;8.428;2024-02-21T01:16:45;45.10;;;22.73;;
4434;SDS011;46552;52.150;8.428;2024-02-21T01:19:12;42.70;;;22.83;;
4434;SDS011;46552;52.150;8.428;2024-02-21T01:21:40;43.50;;;20.43;;
4434;SDS011;46552;52.150;8.428;2024-02-21T01:24:09;54.73;;;22.97;;
4434;SDS011;46552;52.150;8.428;2024-02-21T01:26:36;47.33;;;22.00;;
4434;SDS011;46552;52.150;8.428;2024-02-21T01:29:04;54.10;;;22.87;;
4434;SDS011;46552;52.150;8.428;2024-02-21T01:31:32;49.03;;;23.93;;
4434;SDS011;46552;52.150;8.428;2024-02-21T01:33:59;45.67;;;22.40;;
4434;SDS011;46552;52.150;8.428;2024-02-21T01:36:26;48.57;;;24.40;;
4434;SDS011;46552;52.150;8.428;2024-02-21T01:38:54;52.80;;;23.70;;
4434;SDS011;46552;52.150;8.428;2024-02-21T01:41:23;43.10;;;23.17;;
4434;SDS011;46552;52.150;8.428;2024-02-21T01:43:50;60.37;;;25.17;;
4434;SDS011;46552;52.150;8.428;2024-02-21T01:46:18;45.73;;;21.60;;
4434;SDS011;46552;52.150;8.428;2024-02-21T01:48:46;58.37;;;25.10;;
4434;SDS011;46552;52.150;8.428;2024-02-21T01:51:13;44.20;;;22.10;;
4434;SDS011;46552;52.150;8.428;2024-02-21T01:53:42;53.10;;;24.53;;
4434;SDS011;46552;52.150;8.428;2024-02-21T01:56:10;48.30;;;23.83;;
4434;SDS011;46552;52.150;8.428;2024-02-21T01:58:42;43.80;;;19.90;;
4434;SDS011;46552;52.150;8.428;2024-02-21T02:01:10;53.27;;;24.63;;
4434;SDS011;46552;52.150;8.428;2024-02-21T02:03:37;53.33;;;24.27;;
4434;SDS011;46552;52.150;8.428;2024-02-21T02:06:05;44.03;;;23.63;;
4434;SDS011;46552;52.150;8.428;2024-02-21T02:08:33;58.07;;;25.40;;
4434;SDS011;46552;52.150;8.428;2024-02-21T02:11:00;56.37;;;24.40;;
4434;SDS011;46552;52.150;8.428;2024-02-21T02:13:28;67.30;;;24.07;;
4434;SDS011;46552;52.150;8.428;2024-02-21T02:15:57;50.93;;;24.07;;
4434;SDS011;46552;52.150;8.428;2024-02-21T02:18:24;48.00;;;22.50;;
4434;SDS011;46552;52.150;8.428;2024-02-21T02:20:52;49.00;;;24.90;;
4434;SDS011;46552;52.150;8.428;2024-02-21T02:23:23;56.90;;;22.87;;
4434;SDS011;46552;52.150;8.428;2024-02-21T02:25:50;53.93;;;25.20;;
4434;SDS011;46552;52.150;8.428;2024-02-21T02:28:18;53.43;;;23.20;;
4434;SDS011;46552;52.150;8.428;2024-02-21T02:30:45;47.13;;;24.87;;
4434;SDS011;46552;52.150;8.428;2024-02-21T02:33:13;45.13;;;24.83;;
4434;SDS011;46552;52.150;8.428;2024-02-21T02:35:42;59.53;;;26.63;;
4434;SDS011;46552;52.150;8.428;2024-02-21T02:38:09;67.20;;;27.23;;
4434;SDS011;46552;52.150;8.428;2024-02-21T02:40:39;47.20;;;25.60;;
4434;SDS011;46552;52.150;8.428;2024-02-21T02:43:07;57.33;;;27.20;;
4434;SDS011;46552;52.150;8.428;2024-02-21T02:45:36;58.97;;;26.00;;
4434;SDS011;46552;52.150;8.428;2024-02-21T02:48:03;54.70;;;25.80;;
4434;SDS011;46552;52.150;8.428;2024-02-21T02:50:30;56.63;;;26.83;;
4434;SDS011;46552;52.150;8.428;2024-02-21T02:52:58;67.20;;;26.60;;
4434;SDS011;46552;52.150;8.428;2024-02-21T02:55:26;64.47;;;27.77;;
4434;SDS011;46552;52.150;8.428;2024-02-21T02:57:55;53.53;;;27.63;;
4434;SDS011;46552;52.150;8.428;2024-02-21T03:00:23;62.93;;;28.23;;
4434;SDS011;46552;52.150;8.428;2024-02-21T03:02:50;50.90;;;25.70;;
4434;SDS011;46552;52.150;8.428;2024-02-21T03:05:18;55.73;;;27.53;;
4434;SDS011;46552;52.150;8.428;2024-02-21T03:07:46;59.10;;;27.97;;
4434;SDS011;46552;52.150;8.428;2024-02-21T03:10:14;50.30;;;24.83;;
4434;SDS011;46552;52.150;8.428;2024-02-21T03:12:42;64.63;;;25.93;;
4434;SDS011;46552;52.150;8.428;2024-02-21T03:15:11;64.70;;;27.30;;
4434;SDS011;46552;52.150;8.428;2024-02-21T03:17:39;70.93;;;28.83;;
4434;SDS011;46552;52.150;8.428;2024-02-21T03:20:06;65.67;;;24.27;;
4434;SDS011;46552;52.150;8.428;2024-02-21T03:22:35;51.27;;;24.90;;
4434;SDS011;46552;52.150;8.428;2024-02-21T03:25:02;55.03;;;23.97;;
4434;SDS011;46552;52.150;8.428;2024-02-21T03:27:30;60.30;;;24.40;;
4434;SDS011;46552;52.150;8.428;2024-02-21T03:29:58;58.57;;;24.83;;
4434;SDS011;46552;52.150;8.428;2024-02-21T03:32:26;54.67;;;25.10;;
4434;SDS011;46552;52.150;8.428;2024-02-21T03:34:53;52.00;;;23.73;;
4434;SDS011;46552;52.150;8.428;2024-02-21T03:37:20;53.00;;;24.23;;
4434;SDS011;46552;52.150;8.428;2024-02-21T03:39:48;64.63;;;26.53;;
4434;SDS011;46552;52.150;8.428;2024-02-21T03:42:16;64.00;;;24.43;;
4434;SDS011;46552;52.150;8.428;2024-02-21T03:44:44;54.27;;;23.40;;
4434;SDS011;46552;52.150;8.428;2024-02-21T03:47:11;47.50;;;22.87;;
4434;SDS011;46552;52.150;8.428;2024-02-21T03:49:40;43.77;;;22.07;;
4434;SDS011;46552;52.150;8.428;2024-02-21T03:52:07;49.90;;;24.33;;
4434;SDS011;46552;52.150;8.428;2024-02-21T03:54:35;51.73;;;23.73;;
4434;SDS011;46552;52.150;8.428;2024-02-21T03:57:02;51.40;;;23.13;;
4434;SDS011;46552;52.150;8.428;2024-02-21T03:59:31;58.67;;;22.10;;
4434;SDS011;46552;52.150;8.428;2024-02-21T04:01:58;45.43;;;21.40;;
4434;SDS011;46552;52.150;8.428;2024-02-21T04:04:25;45.93;;;24.23;;
4434;SDS011;46552;52.150;8.428;2024-02-21T04:06:54;49.47;;;22.33;;
4434;SDS011;46552;52.150;8.428;2024-02-21T04:09:22;47.33;;;22.03;;
4434;SDS011;46552;52.150;8.428;2024-02-21T04:11:50;44.07;;;23.57;;
4434;SDS011;46552;52.150;8.428;2024-02-21T04:14:18;53.60;;;22.30;;
4434;SDS011;46552;52.150;8.428;2024-02-21T04:16:46;54.07;;;22.90;;
4434;SDS011;46552;52.150;8.428;2024-02-21T04:19:13;53.07;;;23.10;;
4434;SDS011;46552;52.150;8.428;2024-02-21T04:21:40;45.10;;;20.17;;
4434;SDS011;46552;52.150;8.428;2024-02-21T04:24:09;46.53;;;22.20;;
4434;SDS011;46552;52.150;8.428;2024-02-21T04:26:36;59.10;;;21.30;;
4434;SDS011;46552;52.150;8.428;2024-02-21T04:29:04;50.17;;;22.00;;
4434;SDS011;46552;52.150;8.428;2024-02-21T04:31:32;46.57;;;22.40;;
4434;SDS011;46552;52.150;8.428;2024-02-21T04:33:59;51.67;;;21.77;;
4434;SDS011;46552;52.150;8.428;2024-02-21T04:36:28;43.77;;;22.20;;
4434;SDS011;46552;52.150;8.428;2024-02-21T04:38:55;58.27;;;21.60;;
4434;SDS011;46552;52.150;8.428;2024-02-21T04:41:23;63.63;;;22.40;;
4434;SDS011;46552;52.150;8.428;2024-02-21T04:43:51;56.23;;;23.60;;
4434;SDS011;46552;52.150;8.428;2024-02-21T04:46:18;47.73;;;21.83;;
4434;SDS011;46552;52.150;8.428;2024-02-21T04:48:45;44.33;;;24.13;;
4434;SDS011;46552;52.150;8.428;2024-02-21T04:51:12;50.03;;;23.93;;
4434;SDS011;46552;52.150;8.428;2024-02-21T04:53:40;41.33;;;22.37;;
4434;SDS011;46552;52.150;8.428;2024-02-21T04:56:07;46.13;;;22.63;;
4434;SDS011;46552;52.150;8.428;2024-02-21T04:58:38;48.00;;;24.27;;
4434;SDS011;46552;52.150;8.428;2024-02-21T05:01:06;46.13;;;22.20;;
4434;SDS011;46552;52.150;8.428;2024-02-21T05:03:34;49.40;;;25.47;;
4434;SDS011;46552;52.150;8.428;2024-02-21T05:06:01;41.57;;;23.90;;
4434;SDS011;46552;52.150;8.428;2024-02-21T05:08:28;44.53;;;21.60;;
4434;SDS011;46552;52.150;8.428;2024-02-21T05:10:56;49.17;;;24.60;;
4434;SDS011;46552;52.150;8.428;2024-02-21T05:13:23;63.60;;;26.63;;
4434;SDS011;46552;52.150;8.428;2024-02-21T05:15:53;49.33;;;24.63;;
4434;SDS011;46552;52.150;8.428;2024-02-21T05:18:20;62.63;;;24.07;;
4434;SDS011;46552;52.150;8.428;2024-02-21T05:20:47;58.90;;;22.60;;
4434;SDS011;46552;52.150;8.428;2024-02-21T05:23:15;56.83;;;24.73;;
4434;SDS011;46552;52.150;8.428;2024-02-21T05:25:42;58.50;;;23.10;;
4434;SDS011;46552;52.150;8.428;2024-02-21T05:28:10;60.10;;;25.30;;
4434;SDS011;46552;52.150;8.428;2024-02-21T05:30:37;55.30;;;23.57;;
4434;SDS011;46552;52.150;8.428;2024-02-21T05:33:08;49.57;;;23.97;;
4434;SDS011;46552;52.150;8.428;2024-02-21T05:35:36;45.30;;;24.33;;
4434;SDS011;46552;52.150;8.428;2024-02-21T05:38:04;55.73;;;24.77;;
4434;SDS011;46552;52.150;8.428;2024-02-21T05:40:36;49.60;;;23.60;;
4434;SDS011;46552;52.150;8.428;2024-02-21T05:43:05;72.33;;;26.97;;
4434;SDS011;46552;52.150;8.428;2024-02-21T05:45:33;60.07;;;26.90;;
4434;SDS011;46552;52.150;8.428;2024-02-21T05:48:01;49.47;;;22.50;;
4434;SDS011;46552;52.150;8.428;2024-02-21T05:50:30;50.33;;;23.73;;
4434;SDS011;46552;52.150;8.428;2024-02-21T05:52:57;52.90;;;22.10;;
4434;SDS011;46552;52.150;8.428;2024-02-21T05:55:24;65.57;;;29.10;;
4434;SDS011;46552;52.150;8.428;2024-02-21T05:57:53;58.87;;;25.40;;
4434;SDS011;46552;52.150;8.428;2024-02-21T06:00:20;48.70;;;25.40;;
4434;SDS011;46552;52.150;8.428;2024-02-21T06:02:48;44.73;;;25.83;;
4434;SDS011;46552;52.150;8.428;2024-02-21T06:05:15;47.03;;;26.37;;
4434;SDS011;46552;52.150;8.428;2024-02-21T06:07:45;69.73;;;25.10;;
4434;SDS011;46552;52.150;8.428;2024-02-21T06:10:12;55.80;;;25.53;;
4434;SDS011;46552;52.150;8.428;2024-02-21T06:12:40;50.20;;;24.90;;
4434;SDS011;46552;52.150;8.428;2024-02-21T06:15:07;46.80;;;24.67;;
4434;SDS011;46552;52.150;8.428;2024-02-21T06:17:35;62.73;;;25.70;;
4434;SDS011;46552;52.150;8.428;2024-02-21T06:20:02;51.47;;;25.70;;
4434;SDS011;46552;52.150;8.428;2024-02-21T06:22:30;48.00;;;23.17;;
4434;SDS011;46552;52.150;8.428;2024-02-21T06:24:59;51.10;;;24.80;;
4434;SDS011;46552;52.150;8.428;2024-02-21T06:27:27;43.03;;;22.20;;
4434;SDS011;46552;52.150;8.428;2024-02-21T06:29:54;54.63;;;22.80;;
4434;SDS011;46552;52.150;8.428;2024-02-21T06:32:21;63.10;;;23.80;;
4434;SDS011;46552;52.150;8.428;2024-02-21T06:34:48;44.30;;;23.97;;
4434;SDS011;46552;52.150;8.428;2024-02-21T06:37:16;42.30;;;22.00;;
4434;SDS011;46552;52.150;8.428;2024-02-21T06:39:43;42.63;;;20.73;;
4434;SDS011;46552;52.150;8.428;2024-02-21T06:42:12;41.00;;;20.67;;
4434;SDS011;46552;52.150;8.428;2024-02-21T06:44:39;47.50;;;21.47;;
4434;SDS011;46552;52.150;8.428;2024-02-21T06:47:07;50.03;;;21.23;;
4434;SDS011;46552;52.150;8.428;2024-02-21T06:49:34;45.57;;;21.70;;
4434;SDS011;46552;52.150;8.428;2024-02-21T06:52:02;58.23;;;22.57;;
4434;SDS011;46552;52.150;8.428;2024-02-21T06:54:30;51.13;;;23.33;;
4434;SDS011;46552;52.150;8.428;2024-02-21T06:56:58;47.60;;;19.77;;
4434;SDS011;46552;52.150;8.428;2024-02-21T06:59:26;54.17;;;20.80;;
4434;SDS011;46552;52.150;8.428;2024-02-21T07:01:55;47.73;;;20.80;;
4434;SDS011;46552;52.150;8.428;2024-02-21T07:04:22;40.63;;;19.37;;
4434;SDS011;46552;52.150;8.428;2024-02-21T07:06:49;38.33;;;18.47;;
4434;SDS011;46552;52.150;8.428;2024-02-21T07:09:16;46.90;;;20.40;;
4434;SDS011;46552;52.150;8.428;2024-02-21T07:11:44;37.87;;;17.57;;
4434;SDS011;46552;52.150;8.428;2024-02-21T07:14:11;38.20;;;19.63;;
4434;SDS011;46552;52.150;8.428;2024-02-21T07:16:42;43.83;;;20.10;;
4434;SDS011;46552;52.150;8.428;2024-02-21T07:19:09;36.23;;;18.40;;
4434;SDS011;46552;52.150;8.428;2024-02-21T07:21:36;40.87;;;19.57;;
4434;SDS011;46552;52.150;8.428;2024-02-21T07:24:06;41.40;;;17.77;;
4434;SDS011;46552;52.150;8.428;2024-02-21T07:26:34;34.03;;;17.87;;
4434;SDS011;46552;52.150;8.428;2024-02-21T07:29:01;36.17;;;17.90;;
4434;SDS011;46552;52.150;8.428;2024-02-21T07:31:28;40.47;;;17.80;;
4434;SDS011;46552;52.150;8.428;2024-02-21T07:33:57;40.00;;;17.27;;
4434;SDS011;46552;52.150;8.428;2024-02-21T07:36:27;33.17;;;15.97;;
4434;SDS011;46552;52.150;8.428;2024-02-21T07:38:55;49.00;;;18.00;;
4434;SDS011;46552;52.150;8.428;2024-02-21T07:41:23;35.70;;;16.83;;
4434;SDS011;46552;52.150;8.428;2024-02-21T07:43:50;38.80;;;16.33;;
4434;SDS011;46552;52.150;8.428;2024-02-21T07:46:18;33.63;;;15.30;;
4434;SDS011;46552;52.150;8.428;2024-02-21T07:48:46;36.33;;;15.70;;
4434;SDS011;46552;52.150;8.428;2024-02-21T07:51:15;35.97;;;14.97;;
4434;SDS011;46552;52.150;8.428;2024-02-21T07:53:43;27.53;;;13.90;;
4434;SDS011;46552;52.150;8.428;2024-02-21T07:56:11;28.37;;;14.47;;
4434;SDS011;46552;52.150;8.428;2024-02-21T07:58:39;35.90;;;14.50;;
4434;SDS011;46552;52.150;8.428;2024-02-21T08:01:06;27.93;;;13.57;;
4434;SDS011;46552;52.150;8.428;2024-02-21T08:03:34;25.80;;;13.97;;
4434;SDS011;46552;52.150;8.428;2024-02-21T08:06:02;25.90;;;13.80;;
4434;SDS011;46552;52.150;8.428;2024-02-21T08:08:32;37.90;;;12.77;;
4434;SDS011;46552;52.150;8.428;2024-02-21T08:10:59;31.17;;;12.13;;
4434;SDS011;46552;52.150;8.428;2024-02-21T08:13:26;26.53;;;11.67;;
4434;SDS011;46552;52.150;8.428;2024-02-21T08:15:54;27.20;;;11.50;;
4434;SDS011;46552;52.150;8.428;2024-02-21T08:18:22;19.43;;;10.10;;
4434;SDS011;46552;52.150;8.428;2024-02-21T08:20:49;30.97;;;11.70;;
4434;SDS011;46552;52.150;8.428;2024-02-21T08:23:17;27.40;;;12.00;;
4434;SDS011;46552;52.150;8.428;2024-02-21T08:25:46;24.90;;;10.40;;
4434;SDS011;46552;52.150;8.428;2024-02-21T08:28:13;22.57;;;10.67;;
4434;SDS011;46552;52.150;8.428;2024-02-21T08:30:41;21.77;;;11.20;;
4434;SDS011;46552;52.150;8.428;2024-02-21T08:33:13;28.77;;;11.80;;
4434;SDS011;46552;52.150;8.428;2024-02-21T08:35:42;26.63;;;10.20;;
4434;SDS011;46552;52.150;8.428;2024-02-21T08:38:09;22.27;;;9.30;;
4434;SDS011;46552;52.150;8.428;2024-02-21T08:40:38;23.83;;;10.10;;
4434;SDS011;46552;52.150;8.428;2024-02-21T08:43:06;23.80;;;11.13;;
4434;SDS011;46552;52.150;8.428;2024-02-21T08:45:34;26.20;;;9.80;;
4434;SDS011;46552;52.150;8.428;2024-02-21T08:48:03;20.57;;;9.33;;
4434;SDS011;46552;52.150;8.428;2024-02-21T08:50:31;18.47;;;9.83;;
4434;SDS011;46552;52.150;8.428;2024-02-21T08:52:59;29.37;;;8.70;;
4434;SDS011;46552;52.150;8.428;2024-02-21T08:55:26;24.77;;;9.90;;
4434;SDS011;46552;52.150;8.428;2024-02-21T08:57:53;24.07;;;8.70;;
4434;SDS011;46552;52.150;8.428;2024-02-21T09:00:22;23.67;;;10.07;;
4434;SDS011;46552;52.150;8.428;2024-02-21T09:02:52;18.30;;;9.10;;
4434;SDS011;46552;52.150;8.428;2024-02-21T09:05:21;20.47;;;8.97;;
4434;SDS011;46552;52.150;8.428;2024-02-21T09:07:49;21.30;;;8.77;;
4434;SDS011;46552;52.150;8.428;2024-02-21T09:10:16;21.37;;;9.73;;
4434;SDS011;46552;52.150;8.428;2024-02-21T09:12:43;17.00;;;7.77;;
4434;SDS011;46552;52.150;8.428;2024-02-21T09:15:12;22.33;;;8.83;;
4434;SDS011;46552;52.150;8.428;2024-02-21T09:17:42;20.47;;;7.80;;
4434;SDS011;46552;52.150;8.428;2024-02-21T09:20:09;21.17;;;7.27;;
4434;SDS011;46552;52.150;8.428;2024-02-21T09:22:38;17.23;;;7.50;;
4434;SDS011;46552;52.150;8.428;2024-02-21T09:25:06;20.90;;;8.57;;
4434;SDS011;46552;52.150;8.428;2024-02-21T09:27:37;17.00;;;6.47;;
4434;SDS011;46552;52.150;8.428;2024-02-21T09:30:05;19.23;;;7.87;;
4434;SDS011;46552;52.150;8.428;2024-02-21T09:32:33;17.47;;;7.60;;
4434;SDS011;46552;52.150;8.428;2024-02-21T09:35:02;17.83;;;6.33;;
4434;SDS011;46552;52.150;8.428;2024-02-21T09:37:30;18.10;;;6.93;;
4434;SDS011;46552;52.150;8.428;2024-02-21T09:39:58;16.33;;;6.97;;
4434;SDS011;46552;52.150;8.428;2024-02-21T09:42:27;17.53;;;6.67;;
4434;SDS011;46552;52.150;8.428;2024-02-21T09:44:59;19.87;;;6.13;;
4434;SDS011;46552;52.150;8.428;2024-02-21T09:47:28;17.57;;;7.10;;
4434;SDS011;46552;52.150;8.428;2024-02-21T09:50:06;12.03;;;5.93;;
4434;SDS011;46552;52.150;8.428;2024-02-21T09:52:35;18.27;;;5.70;;
4434;SDS011;46552;52.150;8.428;2024-02-21T09:55:03;18.53;;;5.63;;
4434;SDS011;46552;52.150;8.428;2024-02-21T09:57:33;12.37;;;5.20;;
4434;SDS011;46552;52.150;8.428;2024-02-21T10:00:01;25.73;;;5.80;;
4434;SDS011;46552;52.150;8.428;2024-02-21T10:02:32;14.17;;;6.10;;
4434;SDS011;46552;52.150;8.428;2024-02-21T10:05:00;14.67;;;5.27;;
4434;SDS011;46552;52.150;8.428;2024-02-21T10:07:30;13.07;;;6.43;;
4434;SDS011;46552;52.150;8.428;2024-02-21T10:10:01;25.33;;;6.67;;
4434;SDS011;46552;52.150;8.428;2024-02-21T10:12:28;14.10;;;6.73;;
4434;SDS011;46552;52.150;8.428;2024-02-21T10:15:00;13.47;;;5.00;;
4434;SDS011;46552;52.150;8.428;2024-02-21T10:17:27;14.80;;;5.90;;
4434;SDS011;46552;52.150;8.428;2024-02-21T10:19:54;13.00;;;5.83;;
4434;SDS011;46552;52.150;8.428;2024-02-21T10:22:21;13.27;;;5.87;;
4434;SDS011;46552;52.150;8.428;2024-02-21T10:24:52;13.17;;;4.67;;
4434;SDS011;46552;52.150;8.428;2024-02-21T10:27:23;17.10;;;5.63;;
4434;SDS011;46552;52.150;8.428;2024-02-21T10:29:51;10.13;;;4.83;;
4434;SDS011;46552;52.150;8.428;2024-02-21T10:32:18;13.43;;;6.50;;
4434;SDS011;46552;52.150;8.428;2024-02-21T10:34:45;11.10;;;5.47;;
4434;SDS011;46552;52.150;8.428;2024-02-21T10:37:16;16.50;;;6.30;;
4434;SDS011;46552;52.150;8.428;2024-02-21T10:39:44;16.03;;;5.60;;
4434;SDS011;46552;52.150;8.428;2024-02-21T10:42:12;17.80;;;6.93;;
4434;SDS011;46552;52.150;8.428;2024-02-21T10:44:41;13.73;;;5.63;;
4434;SDS011;46552;52.150;8.428;2024-02-21T10:47:09;13.57;;;5.63;;
4434;SDS011;46552;52.150;8.428;2024-02-21T10:49:39;14.50;;;6.07;;
4434;SDS011;46552;52.150;8.428;2024-02-21T10:52:13;11.33;;;5.90;;
4434;SDS011;46552;52.150;8.428;2024-02-21T10:54:47;16.53;;;6.70;;
4434;SDS011;46552;52.150;8.428;2024-02-21T10:57:22;17.90;;;6.40;;
4434;SDS011;46552;52.150;8.428;2024-02-21T10:59:52;26.90;;;5.90;;
4434;SDS011;46552;52.150;8.428;2024-02-21T11:02:22;16.13;;;5.47;;
4434;SDS011;46552;52.150;8.428;2024-02-21T11:04:51;9.33;;;5.40;;
4434;SDS011;46552;52.150;8.428;2024-02-21T11:07:19;14.13;;;6.30;;
4434;SDS011;46552;52.150;8.428;2024-02-21T11:09:50;15.00;;;7.60;;
4434;SDS011;46552;52.150;8.428;2024-02-21T11:12:21;12.03;;;5.60;;
4434;SDS011;46552;52.150;8.428;2024-02-21T11:14:50;13.80;;;6.90;;
4434;SDS011;46552;52.150;8.428;2024-02-21T11:17:19;12.63;;;6.27;;
4434;SDS011;46552;52.150;8.428;2024-02-21T11:19:49;16.23;;;6.23;;
4434;SDS011;46552;52.150;8.428;2024-02-21T11:22:17;22.90;;;7.87;;
4434;SDS011;46552;52.150;8.428;2024-02-21T11:24:45;11.30;;;6.57;;
4434;SDS011;46552;52.150;8.428;2024-02-21T11:27:14;15.37;;;8.00;;
4434;SDS011;46552;52.150;8.428;2024-02-21T11:29:44;19.63;;;7.70;;
4434;SDS011;46552;52.150;8.428;2024-02-21T11:32:11;13.80;;;7.43;;
4434;SDS011;46552;52.150;8.428;2024-02-21T11:34:41;14.53;;;7.43;;
4434;SDS011;46552;52.150;8.428;2024-02-21T11:37:20;25.53;;;10.00;;
4434;SDS011;46552;52.150;8.428;2024-02-21T11:39:50;18.07;;;8.67;;
4434;SDS011;46552;52.150;8.428;2024-02-21T11:42:18;17.67;;;9.40;;
4434;SDS011;46552;52.150;8.428;2024-02-21T11:44:47;17.10;;;9.47;;
4434;SDS011;46552;52.150;8.428;2024-02-21T11:47:14;28.80;;;9.93;;
4434;SDS011;46552;52.150;8.428;2024-02-21T11:49:43;20.43;;;9.73;;
4434;SDS011;46552;52.150;8.428;2024-02-21T11:52:11;25.33;;;10.53;;
4434;SDS011;46552;52.150;8.428;2024-02-21T11:54:40;26.53;;;9.07;;
4434;SDS011;46552;52.150;8.428;2024-02-21T11:57:08;22.83;;;11.07;;
4434;SDS011;46552;52.150;8.428;2024-02-21T11:59:35;23.53;;;10.73;;
4434;SDS011;46552;52.150;8.428;2024-02-21T12:02:04;24.00;;;11.00;;
4434;SDS011;46552;52.150;8.428;2024-02-21T12:04:32;23.20;;;10.70;;
4434;SDS011;46552;52.150;8.428;2024-02-21T12:07:00;31.50;;;11.87;;
4434;SDS011;46552;52.150;8.428;2024-02-21T12:09:29;33.77;;;12.23;;
4434;SDS011;46552;52.150;8.428;2024-02-21T12:11:59;27.33;;;11.93;;
4434;SDS011;46552;52.150;8.428;2024-02-21T12:14:28;24.33;;;11.67;;
4434;SDS011;46552;52.150;8.428;2024-02-21T12:16:57;23.10;;;12.37;;
4434;SDS011;46552;52.150;8.428;2024-02-21T12:19:26;32.13;;;12.70;;
4434;SDS011;46552;52.150;8.428;2024-02-21T12:21:56;26.57;;;13.40;;
4434;SDS011;46552;52.150;8.428;2024-02-21T12:24:25;32.53;;;14.00;;
4434;SDS011;46552;52.150;8.428;2024-02-21T12:26:55;31.43;;;12.30;;
4434;SDS011;46552;52.150;8.428;2024-02-21T12:29:23;18.90;;;11.40;;
4434;SDS011;46552;52.150;8.428;2024-02-21T12:31:51;23.17;;;11.93;;
4434;SDS011;46552;52.150;8.428;2024-02-21T12:34:19;22.50;;;12.17;;
4434;SDS011;46552;52.150;8.428;2024-02-21T12:36:48;25.43;;;12.30;;
4434;SDS011;46552;52.150;8.428;2024-02-21T12:39:17;18.63;;;10.50;;
4434;SDS011;46552;52.150;8.428;2024-02-21T12:41:44;20.73;;;9.97;;
4434;SDS011;46552;52.150;8.428;2024-02-21T12:44:11;20.27;;;10.93;;
4434;SDS011;46552;52.150;8.428;2024-02-21T12:46:38;21.23;;;10.03;;
4434;SDS011;46552;52.150;8.428;2024-02-21T12:49:06;30.37;;;10.20;;
4434;SDS011;46552;52.150;8.428;2024-02-21T12:51:34;20.07;;;10.03;;
4434;SDS011;46552;52.150;8.428;2024-02-21T12:54:02;21.13;;;9.80;;
4434;SDS011;46552;52.150;8.428;2024-02-21T12:56:30;18.27;;;8.40;;
4434;SDS011;46552;52.150;8.428;2024-02-21T12:58:57;24.67;;;9.20;;
4434;SDS011;46552;52.150;8.428;2024-02-21T13:01:25;21.17;;;10.47;;
4434;SDS011;46552;52.150;8.428;2024-02-21T13:03:53;30.80;;;10.80;;
4434;SDS011;46552;52.150;8.428;2024-02-21T13:06:20;24.87;;;9.70;;
4434;SDS011;46552;52.150;8.428;2024-02-21T13:08:48;33.23;;;11.60;;
4434;SDS011;46552;52.150;8.428;2024-02-21T13:11:17;26.47;;;12.43;;
4434;SDS011;46552;52.150;8.428;2024-02-21T13:13:45;33.60;;;11.87;;
4434;SDS011;46552;52.150;8.428;2024-02-21T13:16:12;26.97;;;10.73;;
4434;SDS011;46552;52.150;8.428;2024-02-21T13:18:39;28.40;;;10.97;;
4434;SDS011;46552;52.150;8.428;2024-02-21T13:21:08;21.67;;;10.33;;
4434;SDS011;46552;52.150;8.428;2024-02-21T13:23:36;34.30;;;11.53;;
4434;SDS011;46552;52.150;8.428;2024-02-21T13:26:03;26.63;;;12.10;;
4434;SDS011;46552;52.150;8.428;2024-02-21T13:28:32;21.50;;;10.33;;
4434;SDS011;46552;52.150;8.428;2024-02-21T13:30:59;20.27;;;9.73;;
4434;SDS011;46552;52.150;8.428;2024-02-21T13:33:27;25.53;;;10.77;;
4434;SDS011;46552;52.150;8.428;2024-02-21T13:35:54;34.47;;;10.93;;
4434;SDS011;46552;52.150;8.428;2024-02-21T13:38:22;23.30;;;10.20;;
4434;SDS011;46552;52.150;8.428;2024-02-21T13:40:50;19.87;;;10.20;;
4434;SDS011;46552;52.150;8.428;2024-02-21T13:43:19;23.03;;;9.57;;
4434;SDS011;46552;52.150;8.428;2024-02-21T13:45:55;26.50;;;10.03;;
4434;SDS011;46552;52.150;8.428;2024-02-21T13:48:24;22.27;;;9.57;;
4434;SDS011;46552;52.150;8.428;2024-02-21T13:50:52;18.80;;;8.57;;
4434;SDS011;46552;52.150;8.428;2024-02-21T13:53:19;23.47;;;10.07;;
4434;SDS011;46552;52.150;8.428;2024-02-21T13:55:49;19.70;;;9.50;;
4434;SDS011;46552;52.150;8.428;2024-02-21T13:58:16;19.53;;;10.77;;
4434;SDS011;46552;52.150;8.428;2024-02-21T14:00:43;27.40;;;10.63;;
4434;SDS011;46552;52.150;8.428;2024-02-21T14:03:12;22.00;;;8.10;;
4434;SDS011;46552;52.150;8.428;2024-02-21T14:05:40;30.87;;;10.73;;
4434;SDS011;46552;52.150;8.428;2024-02-21T14:08:07;18.20;;;8.83;;
4434;SDS011;46552;52.150;8.428;2024-02-21T14:10:34;16.57;;;8.17;;
4434;SDS011;46552;52.150;8.428;2024-02-21T14:13:02;16.33;;;7.53;;
4434;SDS011;46552;52.150;8.428;2024-02-21T14:15:30;20.83;;;7.40;;
4434;SDS011;46552;52.150;8.428;2024-02-21T14:17:57;21.57;;;6.83;;
4434;SDS011;46552;52.150;8.428;2024-02-21T14:20:26;22.90;;;7.23;;
4434;SDS011;46552;52.150;8.428;2024-02-21T14:22:53;18.80;;;7.10;;
4434;SDS011;46552;52.150;8.428;2024-02-21T14:25:20;20.63;;;7.70;;
4434;SDS011;46552;52.150;8.428;2024-02-21T14:27:48;19.93;;;7.60;;
4434;SDS011;46552;52.150;8.428;2024-02-21T14:30:16;17.80;;;6.20;;
4434;SDS011;46552;52.150;8.428;2024-02-21T14:32:44;10.20;;;5.80;;
4434;SDS011;46552;52.150;8.428;2024-02-21T14:35:11;27.87;;;6.33;;
4434;SDS011;46552;52.150;8.428;2024-02-21T14:37:40;16.33;;;5.93;;
4434;SDS011;46552;52.150;8.428;2024-02-21T14:40:07;16.20;;;5.80;;
4434;SDS011;46552;52.150;8.428;2024-02-21T14:42:35;14.07;;;5.13;;